Time;durP1;ratioP1;P1;durP2;ratioP2;P2;SDS_P1;SDS_P2;PMS_P1;PMS_P2;Temp;Humidity;BMP_temperature;BMP_pressure;BME280_temperature;BME280_humidity;BME280_pressure;Samples;Min_cycle;Max_cycle;Signal;HPM_P1;HPM_P2
2023/12/28 00:01:02;;;;;;;0.30;0.30;;;;;;;5.23;75.27;97347.41;5032657;28;20481;-73
2023/12/28 00:03:30;;;;;;;0.40;0.40;;;;;;;5.27;75.92;97338.97;5032989;28;20047;-73
2023/12/28 00:05:58;;;;;;;0.35;0.35;;;;;;;5.28;75.11;97345.94;5032558;28;20073;-73
2023/12/28 00:08:25;;;;;;;0.20;0.20;;;;;;;5.32;74.75;97352.53;5033025;28;20123;-73
2023/12/28 00:10:52;;;;;;;0.30;0.30;;;;;;;5.33;75.27;97348.88;5032918;28;20068;-73
2023/12/28 00:13:20;;;;;;;0.32;0.32;;;;;;;5.35;74.09;97351.38;5033193;28;20033;-72
2023/12/28 00:15:47;;;;;;;0.30;0.30;;;;;;;5.41;71.84;97353.31;5035641;28;20080;-73
2023/12/28 00:18:16;;;;;;;0.50;0.50;;;;;;;5.44;70.67;97345.88;5032421;28;20112;-73
2023/12/28 00:20:48;;;;;;;0.30;0.30;;;;;;;5.64;67.80;97329.63;5032424;28;20049;-73
2023/12/28 00:23:16;;;;;;;0.30;0.30;;;;;;;5.78;67.03;97321.81;5034640;28;20068;-73
2023/12/28 00:25:44;;;;;;;0.30;0.30;;;;;;;6.07;64.44;97318.56;5034100;28;20060;-72
2023/12/28 00:28:11;;;;;;;0.32;0.32;;;;;;;6.23;63.75;97323.75;5035250;28;20049;-74
2023/12/28 00:30:39;;;;;;;0.20;0.20;;;;;;;6.26;62.91;97320.78;5031730;28;20497;-73
2023/12/28 00:33:06;;;;;;;0.20;0.20;;;;;;;6.43;62.05;97315.38;5032913;28;20049;-73
2023/12/28 00:35:35;;;;;;;0.30;0.30;;;;;;;6.64;60.70;97315.59;5032421;28;20049;-73
2023/12/28 00:38:03;;;;;;;0.30;0.30;;;;;;;6.79;60.31;97329.69;5032625;28;20120;-73
2023/12/28 00:40:31;;;;;;;0.30;0.30;;;;;;;6.82;59.79;97320.56;5030977;28;20055;-72
2023/12/28 00:42:58;;;;;;;0.30;0.30;;;;;;;6.78;59.86;97316.63;5030649;28;20259;-73
2023/12/28 00:45:28;;;;;;;0.20;0.20;;;;;;;6.80;59.60;97311.97;5030838;28;20060;-73
2023/12/28 00:47:56;;;;;;;0.20;0.20;;;;;;;6.97;58.72;97324.91;5030389;28;20492;-73
2023/12/28 00:50:27;;;;;;;0.30;0.30;;;;;;;6.91;58.67;97328.28;5030586;28;20045;-73
2023/12/28 00:52:56;;;;;;;0.40;0.40;;;;;;;6.88;58.70;97331.28;5031886;28;20056;-73
2023/12/28 00:55:24;;;;;;;0.35;0.35;;;;;;;6.88;58.17;97333.94;5032187;28;20436;-73
2023/12/28 00:57:51;;;;;;;0.20;0.20;;;;;;;7.02;57.79;97340.31;5030471;28;20049;-73
2023/12/28 01:00:19;;;;;;;0.40;0.40;;;;;;;6.97;57.88;97343.47;5031870;28;20050;-73
2023/12/28 01:02:47;;;;;;;0.20;0.20;;;;;;;6.96;57.89;97328.56;5031485;28;20041;-73
2023/12/28 01:05:16;;;;;;;0.47;0.47;;;;;;;6.93;57.91;97339.56;5031840;28;20421;-73
2023/12/28 01:07:44;;;;;;;0.25;0.25;;;;;;;6.85;58.14;97328.19;5029952;28;20057;-74
2023/12/28 01:10:13;;;;;;;0.10;0.10;;;;;;;6.90;57.57;97317.84;5031503;28;20075;-73
2023/12/28 01:12:41;;;;;;;0.30;0.30;;;;;;;6.87;57.41;97321.69;5030269;28;20042;-73
2023/12/28 01:15:09;;;;;;;0.30;0.30;;;;;;;6.86;56.88;97322.69;5023713;28;20056;-73
2023/12/28 01:17:37;;;;;;;0.10;0.10;;;;;;;6.92;57.14;97318.50;5030380;28;20048;-73
2023/12/28 01:20:06;;;;;;;0.45;0.45;;;;;;;7.00;55.90;97313.94;5030082;28;20045;-73
2023/12/28 01:22:33;;;;;;;0.30;0.30;;;;;;;7.08;55.42;97322.84;5031831;28;20042;-73
2023/12/28 01:25:01;;;;;;;0.30;0.30;;;;;;;7.17;54.87;97314.63;5031355;28;20505;-73
2023/12/28 01:27:30;;;;;;;0.20;0.20;;;;;;;7.22;54.79;97322.88;5031538;28;20505;-73
2023/12/28 01:29:58;;;;;;;0.30;0.30;;;;;;;7.20;54.83;97316.09;5031060;28;20519;-72
2023/12/28 01:32:26;;;;;;;0.20;0.20;;;;;;;7.32;53.93;97312.81;5030461;28;20123;-72
2023/12/28 01:34:53;;;;;;;0.20;0.20;;;;;;;7.26;53.62;97310.09;5031033;28;20408;-73
2023/12/28 01:37:21;;;;;;;0.20;0.20;;;;;;;7.52;52.21;97294.53;5031376;28;20112;-73
2023/12/28 01:39:49;;;;;;;0.20;0.20;;;;;;;7.73;51.46;97304.41;5030549;28;20437;-73
2023/12/28 01:42:17;;;;;;;0.20;0.20;;;;;;;7.82;50.43;97292.69;5029258;28;20081;-74
2023/12/28 01:44:46;;;;;;;0.20;0.20;;;;;;;7.77;50.65;97302.22;5029849;28;20489;-73
2023/12/28 01:47:13;;;;;;;0.30;0.30;;;;;;;7.96;49.66;97305.13;5029968;28;20075;-73
2023/12/28 01:49:42;;;;;;;0.30;0.30;;;;;;;7.98;49.54;97308.44;5030082;28;20160;-73
2023/12/28 01:52:09;;;;;;;0.30;0.30;;;;;;;8.04;49.02;97318.31;5031166;28;20100;-73
2023/12/28 01:54:38;;;;;;;0.20;0.20;;;;;;;8.09;49.19;97323.91;5029896;28;20041;-73
2023/12/28 01:57:07;;;;;;;0.40;0.40;;;;;;;8.13;49.05;97307.56;5031231;28;20045;-72
2023/12/28 01:59:35;;;;;;;0.20;0.20;;;;;;;8.02;49.31;97296.41;5029534;28;20041;-74
2023/12/28 02:02:04;;;;;;;0.25;0.25;;;;;;;8.00;50.00;97313.53;5029580;28;20073;-73
2023/12/28 02:04:32;;;;;;;0.20;0.20;;;;;;;8.06;49.52;97321.63;5030911;28;20056;-73
2023/12/28 02:07:01;;;;;;;0.13;0.13;;;;;;;8.09;49.74;97329.22;5029605;28;20046;-73
2023/12/28 02:09:29;;;;;;;0.20;0.20;;;;;;;7.97;50.28;97313.94;5029918;28;20506;-73
2023/12/28 02:11:57;;;;;;;0.38;0.38;;;;;;;7.99;50.26;97306.59;5030770;28;20087;-73
2023/12/28 02:14:24;;;;;;;0.20;0.20;;;;;;;7.89;50.72;97303.41;5029541;28;20071;-73
2023/12/28 02:16:58;;;;;;;0.30;0.30;;;;;;;7.84;50.61;97295.97;5029408;28;20132;-73
2023/12/28 02:19:33;;;;;;;0.30;0.30;;;;;;;7.88;51.07;97301.75;5029515;28;20126;-73
2023/12/28 02:22:01;;;;;;;0.40;0.40;;;;;;;7.90;50.29;97294.41;5028006;28;20168;-73
2023/12/28 02:24:29;;;;;;;0.10;0.10;;;;;;;7.90;50.63;97302.38;5030872;28;20091;-74
2023/12/28 02:26:57;;;;;;;0.40;0.40;;;;;;;7.91;50.29;97283.59;5031019;28;20107;-73
2023/12/28 02:29:25;;;;;;;0.38;0.38;;;;;;;7.89;50.03;97301.56;5029513;28;20145;-73
2023/12/28 02:32:00;;;;;;;0.20;0.20;;;;;;;7.87;50.25;97310.75;5030315;28;20037;-73
2023/12/28 02:34:34;;;;;;;0.22;0.22;;;;;;;7.90;50.02;97310.34;5027530;28;20068;-74
2023/12/28 02:37:02;;;;;;;0.10;0.10;;;;;;;7.97;49.58;97285.53;5021271;28;20041;-73
2023/12/28 02:39:30;;;;;;;0.35;0.35;;;;;;;7.93;50.10;97296.69;5030849;28;20471;-73
2023/12/28 02:41:59;;;;;;;0.20;0.20;;;;;;;7.81;50.27;97285.72;5029078;28;20049;-73
2023/12/28 02:44:27;;;;;;;0.30;0.30;;;;;;;7.91;50.53;97277.47;5030720;28;20124;-73
2023/12/28 02:46:55;;;;;;;0.20;0.20;;;;;;;7.93;50.36;97294.03;5030886;28;20051;-73
2023/12/28 02:49:22;;;;;;;0.35;0.35;;;;;;;7.74;51.12;97293.63;5031031;28;20042;-73
2023/12/28 02:51:50;;;;;;;0.20;0.20;;;;;;;7.73;51.14;97302.59;5028939;28;20055;-74
2023/12/28 02:54:18;;;;;;;0.20;0.20;;;;;;;7.68;51.14;97294.34;5037697;28;20053;-74
2023/12/28 02:56:46;;;;;;;0.30;0.30;;;;;;;7.70;51.19;97292.31;5055802;28;20071;-76
2023/12/28 02:59:14;;;;;;;0.20;0.20;;;;;;;7.68;51.12;97297.00;5051836;28;20072;-73
2023/12/28 03:01:42;;;;;;;0.13;0.13;;;;;;;7.70;50.95;97307.44;5033475;28;20047;-72
2023/12/28 03:04:11;;;;;;;0.30;0.30;;;;;;;7.74;50.74;97316.69;5033894;28;20046;-73
2023/12/28 03:06:40;;;;;;;0.40;0.40;;;;;;;7.73;50.88;97321.19;5034511;28;20570;-74
2023/12/28 03:09:08;;;;;;;0.40;0.40;;;;;;;7.67;51.01;97306.00;5035494;28;20049;-72
2023/12/28 03:11:36;;;;;;;0.30;0.30;;;;;;;7.79;50.43;97324.91;5033357;28;20135;-73
2023/12/28 03:14:03;;;;;;;0.28;0.28;;;;;;;7.84;50.53;97332.34;5033847;28;20037;-73
2023/12/28 03:16:32;;;;;;;0.20;0.20;;;;;;;7.72;50.44;97321.34;5034089;28;20053;-73
2023/12/28 03:19:01;;;;;;;0.20;0.20;;;;;;;7.77;50.26;97334.09;5033379;28;20072;-73
2023/12/28 03:21:29;;;;;;;0.30;0.30;;;;;;;7.78;50.51;97327.78;5032292;28;20050;-73
2023/12/28 03:23:57;;;;;;;0.20;0.20;;;;;;;7.71;50.89;97320.53;5033282;28;20053;-73
2023/12/28 03:26:24;;;;;;;0.20;0.20;;;;;;;7.65;51.05;97328.41;5033419;28;20046;-73
2023/12/28 03:28:52;;;;;;;0.28;0.28;;;;;;;7.58;51.18;97325.66;5032093;28;20053;-73
2023/12/28 03:31:19;;;;;;;0.30;0.30;;;;;;;7.69;50.68;97322.53;5033440;28;20065;-73
2023/12/28 03:33:49;;;;;;;0.30;0.30;;;;;;;7.72;50.53;97310.72;5031815;28;20103;-73
2023/12/28 03:36:20;;;;;;;0.30;0.30;;;;;;;7.73;50.49;97313.22;5033782;28;20045;-73
2023/12/28 03:38:48;;;;;;;0.20;0.20;;;;;;;7.86;49.41;97341.78;5033320;28;20531;-73
2023/12/28 03:41:18;;;;;;;0.30;0.30;;;;;;;7.86;49.62;97341.78;5033596;28;20030;-73
2023/12/28 03:43:46;;;;;;;0.25;0.25;;;;;;;7.88;49.91;97345.09;5033559;28;20049;-73
2023/12/28 03:46:13;;;;;;;0.20;0.20;;;;;;;7.81;49.86;97349.47;5033519;28;20049;-74
2023/12/28 03:48:41;;;;;;;0.40;0.40;;;;;;;7.89;49.33;97335.31;5041411;28;20045;-73
2023/12/28 03:51:14;;;;;;;0.20;0.20;;;;;;;7.89;49.75;97343.28;5042238;28;20049;-74
2023/12/28 03:53:42;;;;;;;0.20;0.20;;;;;;;7.83;49.78;97359.94;5042385;28;20053;-74
2023/12/28 03:56:19;;;;;;;0.32;0.32;;;;;;;7.85;49.83;97337.50;5042438;28;20098;-75
2023/12/28 03:58:46;;;;;;;0.30;0.30;;;;;;;7.84;50.19;97353.59;5041318;28;20047;-75
2023/12/28 04:01:14;;;;;;;0.30;0.30;;;;;;;7.84;49.79;97349.13;5041389;28;20061;-73
2023/12/28 04:03:42;;;;;;;0.30;0.30;;;;;;;7.90;49.69;97339.56;5042056;28;20054;-77
2023/12/28 04:06:11;;;;;;;0.20;0.20;;;;;;;7.89;49.78;97330.78;5043803;28;20130;-75
2023/12/28 04:08:38;;;;;;;0.20;0.20;;;;;;;7.83;50.01;97330.69;5040969;28;20038;-73
2023/12/28 04:11:08;;;;;;;0.30;0.30;;;;;;;7.80;49.93;97326.56;5041854;28;20049;-73
2023/12/28 04:13:35;;;;;;;0.20;0.20;;;;;;;7.85;49.80;97332.19;5034322;28;20037;-74
2023/12/28 04:16:04;;;;;;;0.28;0.28;;;;;;;7.78;50.06;97311.84;5032552;28;20049;-73
2023/12/28 04:18:32;;;;;;;0.40;0.40;;;;;;;7.84;49.91;97300.47;5032550;28;20525;-74
2023/12/28 04:21:00;;;;;;;0.30;0.30;;;;;;;7.88;49.63;97329.16;5030821;28;20418;-74
2023/12/28 04:23:29;;;;;;;0.20;0.20;;;;;;;7.87;49.81;97306.25;5031268;28;20077;-73
2023/12/28 04:25:59;;;;;;;0.20;0.20;;;;;;;7.92;49.27;97287.09;5032002;28;20113;-73
2023/12/28 04:28:26;;;;;;;0.20;0.20;;;;;;;7.88;49.82;97307.91;5030913;28;20049;-74
2023/12/28 04:30:54;;;;;;;0.45;0.45;;;;;;;7.89;49.86;97303.41;5031858;28;20048;-73
2023/12/28 04:33:22;;;;;;;0.20;0.20;;;;;;;7.89;49.82;97300.75;5031031;28;20509;-73
2023/12/28 04:35:49;;;;;;;0.20;0.20;;;;;;;7.86;49.88;97317.88;5031341;28;20095;-73
2023/12/28 04:38:17;;;;;;;0.20;0.20;;;;;;;7.90;49.85;97305.84;5030939;28;20041;-73
2023/12/28 04:40:46;;;;;;;0.22;0.22;;;;;;;7.85;50.35;97294.97;5030884;28;20061;-74
2023/12/28 04:43:17;;;;;;;0.20;0.20;;;;;;;7.82;50.69;97286.53;5031385;28;20076;-73
2023/12/28 04:45:45;;;;;;;0.30;0.30;;;;;;;7.80;51.13;97272.63;5030957;28;20072;-73
2023/12/28 04:48:12;;;;;;;0.30;0.30;;;;;;;7.87;51.01;97310.75;5030616;28;20049;-74
2023/12/28 04:50:41;;;;;;;0.20;0.20;;;;;;;7.85;50.99;97308.25;5030358;28;20041;-76
2023/12/28 04:53:08;;;;;;;0.40;0.40;;;;;;;7.83;51.32;97314.75;5031798;28;20153;-73
2023/12/28 04:55:36;;;;;;;0.40;0.40;;;;;;;7.82;51.07;97294.50;5030607;28;20049;-73
2023/12/28 04:58:05;;;;;;;0.20;0.20;;;;;;;7.80;51.28;97280.59;5031496;28;20061;-74
2023/12/28 05:00:33;;;;;;;0.20;0.20;;;;;;;7.79;51.33;97274.44;5031927;28;20045;-74
2023/12/28 05:03:01;;;;;;;0.30;0.30;;;;;;;7.82;51.35;97281.22;5031651;28;20054;-73
2023/12/28 05:05:29;;;;;;;0.20;0.20;;;;;;;7.87;51.21;97285.00;5031666;28;20037;-73
2023/12/28 05:07:57;;;;;;;0.20;0.20;;;;;;;7.87;51.59;97281.50;5030073;28;20489;-74
2023/12/28 05:10:25;;;;;;;0.20;0.20;;;;;;;7.88;51.46;97301.75;5053283;22;20144;-74
2023/12/28 05:12:52;;;;;;;0.15;0.15;;;;;;;7.98;51.65;97312.94;5036976;28;20129;-72
2023/12/28 05:15:21;;;;;;;0.30;0.30;;;;;;;7.97;52.13;97308.63;5035416;28;20504;-71
2023/12/28 05:17:50;;;;;;;0.20;0.20;;;;;;;7.91;52.64;97328.78;5027989;28;20053;-74
2023/12/28 05:20:18;;;;;;;0.20;0.20;;;;;;;7.96;52.86;97333.53;5030537;28;20045;-72
2023/12/28 05:22:46;;;;;;;0.20;0.20;;;;;;;7.92;52.73;97346.38;5031377;28;20073;-72
2023/12/28 05:25:14;;;;;;;0.30;0.30;;;;;;;7.86;53.09;97352.44;5026961;28;20492;-72
2023/12/28 05:27:42;;;;;;;0.17;0.17;;;;;;;7.94;53.01;97370.09;5024718;28;20054;-73
2023/12/28 05:30:10;;;;;;;0.30;0.30;;;;;;;7.94;52.87;97365.59;5027264;28;20063;-72
2023/12/28 05:32:40;;;;;;;0.30;0.30;;;;;;;7.92;53.05;97358.81;5031347;28;20049;-72
2023/12/28 05:35:08;;;;;;;0.50;0.50;;;;;;;7.97;52.92;97370.56;5034169;28;20504;-72
2023/12/28 05:37:35;;;;;;;0.20;0.20;;;;;;;8.01;53.10;97376.31;5031179;28;20045;-74
2023/12/28 05:40:03;;;;;;;0.30;0.30;;;;;;;7.96;53.65;97365.44;5017147;28;20056;-72
2023/12/28 05:42:31;;;;;;;0.30;0.30;;;;;;;7.98;53.56;97363.41;5026757;28;20052;-72
2023/12/28 05:44:59;;;;;;;0.30;0.30;;;;;;;7.93;53.96;97358.66;5028611;28;20407;-72
2023/12/28 05:47:26;;;;;;;0.50;0.43;;;;;;;7.94;54.11;97354.97;5025561;28;20042;-72
2023/12/28 05:49:55;;;;;;;0.20;0.20;;;;;;;7.89;54.51;97369.84;5036059;28;20565;-72
2023/12/28 05:52:23;;;;;;;0.30;0.30;;;;;;;7.90;54.94;97369.63;5025086;28;20382;-72
2023/12/28 05:54:51;;;;;;;0.20;0.20;;;;;;;7.90;54.96;97382.91;5030447;28;20038;-72
2023/12/28 05:57:18;;;;;;;0.30;0.30;;;;;;;7.91;55.34;97383.75;5022924;28;20519;-72
2023/12/28 05:59:46;;;;;;;0.20;0.20;;;;;;;7.90;55.46;97396.19;5015500;28;20033;-72
2023/12/28 06:02:14;;;;;;;0.30;0.30;;;;;;;7.88;56.31;97384.13;5023624;28;20567;-71
2023/12/28 06:04:41;;;;;;;0.20;0.20;;;;;;;7.85;56.60;97398.59;5031034;28;20045;-72
2023/12/28 06:07:11;;;;;;;0.22;0.22;;;;;;;7.86;56.96;97388.78;5027363;28;20144;-71
2023/12/28 06:09:38;;;;;;;0.30;0.30;;;;;;;7.93;57.01;97401.16;5033721;28;20045;-72
2023/12/28 06:12:07;;;;;;;0.25;0.25;;;;;;;7.87;57.34;97409.03;5022263;28;20069;-72
2023/12/28 06:14:34;;;;;;;0.20;0.20;;;;;;;7.86;58.07;97413.53;5022327;28;20485;-72
2023/12/28 06:17:02;;;;;;;0.30;0.30;;;;;;;7.82;58.07;97425.53;5027354;28;20038;-74
2023/12/28 06:19:30;;;;;;;0.40;0.40;;;;;;;7.85;59.12;97432.31;5023277;28;20164;-72
2023/12/28 06:21:59;;;;;;;0.22;0.22;;;;;;;7.82;59.49;97424.69;5030371;28;20037;-73
2023/12/28 06:24:28;;;;;;;0.20;0.20;;;;;;;7.84;59.81;97420.84;5021714;28;20050;-74
2023/12/28 06:26:56;;;;;;;0.35;0.35;;;;;;;7.84;59.87;97415.53;5035754;28;20044;-72
2023/12/28 06:29:23;;;;;;;0.20;0.20;;;;;;;7.83;59.78;97439.63;5025132;28;20060;-71
2023/12/28 06:31:51;;;;;;;0.20;0.20;;;;;;;7.83;59.62;97448.44;5029134;28;20423;-72
2023/12/28 06:34:19;;;;;;;0.20;0.20;;;;;;;7.82;60.11;97438.81;5027779;28;20374;-72
2023/12/28 06:36:47;;;;;;;0.20;0.20;;;;;;;7.74;60.16;97415.81;5037622;28;20099;-73
2023/12/28 06:39:14;;;;;;;0.35;0.35;;;;;;;7.69;60.41;97385.47;5017125;28;20127;-71
2023/12/28 06:41:43;;;;;;;0.30;0.30;;;;;;;7.71;60.05;97410.03;5023431;28;20100;-72
2023/12/28 06:44:13;;;;;;;0.22;0.22;;;;;;;7.70;60.03;97414.50;5029551;28;20041;-72
2023/12/28 06:46:41;;;;;;;0.25;0.25;;;;;;;7.72;59.79;97414.34;5026420;28;20041;-74
2023/12/28 06:49:08;;;;;;;0.28;0.28;;;;;;;7.68;59.94;97408.53;5025670;28;20046;-72
2023/12/28 06:51:38;;;;;;;0.20;0.20;;;;;;;7.67;60.51;97401.59;5033852;28;20041;-72
2023/12/28 06:54:06;;;;;;;0.28;0.28;;;;;;;7.66;61.72;97413.22;5022820;28;20052;-71
2023/12/28 06:56:33;;;;;;;0.20;0.20;;;;;;;7.64;62.36;97417.06;5033688;28;20497;-71
2023/12/28 06:59:02;;;;;;;0.28;0.28;;;;;;;7.60;63.01;97416.59;5026369;28;20052;-71
2023/12/28 07:01:30;;;;;;;0.20;0.20;;;;;;;7.67;63.09;97414.88;5030027;28;20069;-72
2023/12/28 07:03:59;;;;;;;0.63;0.63;;;;;;;7.67;63.57;97428.16;5023782;28;20045;-72
2023/12/28 07:06:27;;;;;;;0.20;0.20;;;;;;;7.61;63.97;97436.84;5022375;28;20037;-71
2023/12/28 07:08:54;;;;;;;0.30;0.30;;;;;;;7.66;64.18;97437.16;5033451;28;20041;-72
2023/12/28 07:11:22;;;;;;;0.20;0.20;;;;;;;7.67;64.14;97430.00;5025002;28;20051;-72
2023/12/28 07:13:50;;;;;;;0.25;0.25;;;;;;;7.65;64.56;97446.13;5033307;28;20041;-72
2023/12/28 07:16:19;;;;;;;0.20;0.20;;;;;;;7.63;65.27;97469.38;5033651;28;20164;-71
2023/12/28 07:18:46;;;;;;;0.20;0.20;;;;;;;7.68;65.59;97477.59;5030042;28;20048;-72
2023/12/28 07:21:14;;;;;;;0.30;0.30;;;;;;;7.66;65.69;97484.94;5029697;28;20046;-72
2023/12/28 07:23:42;;;;;;;0.30;0.30;;;;;;;7.67;66.14;97478.63;5029018;28;20056;-74
2023/12/28 07:26:09;;;;;;;0.40;0.40;;;;;;;7.63;66.58;97487.13;5029101;28;20067;-72
2023/12/28 07:28:37;;;;;;;0.30;0.30;;;;;;;7.67;66.65;97475.16;5035816;28;20502;-72
2023/12/28 07:31:04;;;;;;;0.22;0.22;;;;;;;7.62;66.83;97483.66;5034107;28;20052;-72
2023/12/28 07:33:33;;;;;;;0.22;0.22;;;;;;;7.62;66.62;97483.66;5032907;28;20132;-72
2023/12/28 07:36:02;;;;;;;0.20;0.20;;;;;;;7.59;66.88;97475.19;5024949;28;20040;-72
2023/12/28 07:38:30;;;;;;;0.25;0.25;;;;;;;7.59;66.43;97477.84;5028644;28;20042;-71
2023/12/28 07:40:58;;;;;;;0.20;0.20;;;;;;;7.62;66.26;97477.50;5021584;28;20377;-71
2023/12/28 07:43:26;;;;;;;0.20;0.20;;;;;;;7.67;66.01;97478.63;5025859;28;20046;-71
2023/12/28 07:45:53;;;;;;;0.30;0.30;;;;;;;7.63;66.11;97480.00;5031988;28;20117;-71
2023/12/28 07:48:21;;;;;;;0.30;0.30;;;;;;;7.70;65.80;97472.13;5024437;28;20034;-72
2023/12/28 07:50:51;;;;;;;0.35;0.35;;;;;;;7.68;65.63;97461.66;5030790;28;20099;-74
2023/12/28 07:53:19;;;;;;;0.50;0.50;;;;;;;7.68;64.78;97472.28;5028489;28;20034;-72
2023/12/28 07:55:47;;;;;;;0.40;0.40;;;;;;;7.70;64.52;97472.94;5021354;28;20046;-71
2023/12/28 07:58:15;;;;;;;0.20;0.20;;;;;;;7.64;64.52;97457.75;5029728;28;20133;-74
2023/12/28 08:00:43;;;;;;;0.22;0.22;;;;;;;7.61;64.73;97460.75;5016664;28;20417;-71
2023/12/28 08:03:11;;;;;;;0.20;0.20;;;;;;;7.61;64.79;97459.91;5025332;28;20042;-72
2023/12/28 08:05:39;;;;;;;0.30;0.30;;;;;;;7.62;65.16;97462.41;5028415;28;20041;-72
2023/12/28 08:08:08;;;;;;;0.20;0.20;;;;;;;7.60;65.58;97467.06;5028878;28;20053;-72
2023/12/28 08:10:36;;;;;;;0.30;0.30;;;;;;;7.62;65.78;97475.69;5028462;28;20091;-72
2023/12/28 08:13:04;;;;;;;0.20;0.20;;;;;;;7.60;65.77;97471.53;5020355;28;20485;-73
2023/12/28 08:15:31;;;;;;;0.43;0.43;;;;;;;7.56;66.58;97479.06;5032245;28;20046;-73
2023/12/28 08:17:59;;;;;;;0.40;0.40;;;;;;;7.62;66.47;97474.84;5031628;28;20045;-73
2023/12/28 08:20:27;;;;;;;0.30;0.30;;;;;;;7.65;66.54;97487.78;5032654;28;20155;-73
2023/12/28 08:22:55;;;;;;;0.20;0.20;;;;;;;7.62;66.65;97478.34;5023896;28;20066;-73
2023/12/28 08:25:42;;;;;;;0.30;0.30;;;;;;;7.63;66.55;97477.34;5027654;28;20052;-72
2023/12/28 08:28:10;;;;;;;0.20;0.20;;;;;;;7.66;66.61;97481.47;5029179;28;20129;-72
2023/12/28 08:30:37;;;;;;;0.43;0.43;;;;;;;7.66;66.92;97498.22;5023704;28;20420;-73
2023/12/28 08:33:05;;;;;;;0.20;0.20;;;;;;;7.77;66.76;97485.53;5021454;28;20125;-73
2023/12/28 08:35:33;;;;;;;0.28;0.28;;;;;;;7.73;66.97;97501.81;5028582;28;20033;-73
2023/12/28 08:38:01;;;;;;;0.20;0.20;;;;;;;7.80;66.59;97495.78;5024799;28;20052;-73
2023/12/28 08:40:29;;;;;;;0.22;0.22;;;;;;;7.81;66.03;97508.06;5027348;28;20081;-73
2023/12/28 08:42:58;;;;;;;0.20;0.20;;;;;;;7.81;66.19;97502.75;5036519;28;20040;-72
2023/12/28 08:45:25;;;;;;;0.30;0.30;;;;;;;7.85;65.69;97504.03;5032257;28;20084;-73
2023/12/28 08:47:53;;;;;;;0.22;0.22;;;;;;;7.77;65.39;97496.97;5032510;28;20492;-72
2023/12/28 08:50:21;;;;;;;0.20;0.20;;;;;;;7.86;64.95;97505.69;5037095;28;20493;-72
2023/12/28 08:52:48;;;;;;;0.40;0.40;;;;;;;7.90;64.84;97501.66;5039960;28;20042;-73
2023/12/28 08:55:16;;;;;;;0.35;0.35;;;;;;;7.91;64.92;97512.13;5028841;28;20439;-72
2023/12/28 08:57:43;;;;;;;0.30;0.30;;;;;;;7.85;65.28;97510.19;5031583;28;20041;-72
2023/12/28 09:00:14;;;;;;;0.20;0.20;;;;;;;7.87;65.22;97510.84;5023525;28;20045;-72
2023/12/28 09:02:42;;;;;;;0.52;0.52;;;;;;;7.91;65.62;97503.31;5024020;28;20038;-72
2023/12/28 09:05:10;;;;;;;0.22;0.22;;;;;;;7.81;66.14;97489.47;5020121;28;20073;-73
2023/12/28 09:07:42;;;;;;;0.32;0.32;;;;;;;7.87;65.63;97500.22;5025753;28;20042;-72
2023/12/28 09:10:11;;;;;;;0.28;0.28;;;;;;;7.81;66.04;97484.97;5026312;28;20052;-72
2023/12/28 09:12:38;;;;;;;0.45;0.45;;;;;;;7.81;65.74;97484.16;5027711;28;20041;-72
2023/12/28 09:15:07;;;;;;;0.30;0.30;;;;;;;7.89;65.68;97484.88;5029877;28;20045;-73
2023/12/28 09:17:37;;;;;;;0.32;0.32;;;;;;;7.85;65.41;97480.97;5031885;28;20071;-73
2023/12/28 09:20:06;;;;;;;0.30;0.30;;;;;;;7.82;65.77;97486.63;5031770;28;20052;-72
2023/12/28 09:22:34;;;;;;;0.30;0.30;;;;;;;7.87;65.59;97472.81;5027556;28;20042;-72
2023/12/28 09:25:01;;;;;;;0.28;0.28;;;;;;;7.86;65.66;97490.59;5032948;28;20141;-72
2023/12/28 09:27:29;;;;;;;0.30;0.30;;;;;;;7.85;65.57;97486.28;5036492;28;20103;-72
2023/12/28 09:29:57;;;;;;;0.20;0.20;;;;;;;7.79;65.98;97481.66;5033449;28;20072;-72
2023/12/28 09:32:24;;;;;;;0.30;0.30;;;;;;;7.88;65.87;97488.59;5036871;28;20052;-72
2023/12/28 09:34:53;;;;;;;0.30;0.30;;;;;;;7.77;66.37;97481.03;5029164;28;20107;-72
2023/12/28 09:37:21;;;;;;;0.20;0.20;;;;;;;7.72;66.62;97492.19;5024593;28;20042;-72
2023/12/28 09:39:48;;;;;;;0.40;0.40;;;;;;;7.76;66.81;97492.66;5030092;28;20056;-72
2023/12/28 09:42:18;;;;;;;0.40;0.40;;;;;;;7.81;66.93;97481.50;5026402;28;20041;-72
2023/12/28 09:44:46;;;;;;;0.40;0.40;;;;;;;7.73;67.30;97488.53;5025903;28;20081;-73
2023/12/28 09:47:15;;;;;;;1.02;1.02;;;;;;;7.82;67.43;97485.78;5024817;28;20049;-73
2023/12/28 09:49:42;;;;;;;0.22;0.22;;;;;;;7.86;67.33;97481.78;5022912;28;20042;-73
2023/12/28 09:52:11;;;;;;;0.20;0.20;;;;;;;7.86;67.58;97479.97;5012212;28;20049;-72
2023/12/28 09:54:39;;;;;;;0.20;0.20;;;;;;;7.83;68.23;97490.94;5017943;28;20102;-73
2023/12/28 09:57:07;;;;;;;0.20;0.20;;;;;;;7.85;68.46;97491.59;5030327;28;20049;-73
2023/12/28 09:59:34;;;;;;;0.20;0.20;;;;;;;7.88;68.43;97498.38;5018991;28;20038;-73
2023/12/28 10:02:03;;;;;;;0.30;0.30;;;;;;;7.86;69.37;97484.44;5028206;28;20069;-73
2023/12/28 10:04:31;;;;;;;0.30;0.30;;;;;;;7.86;69.72;97481.78;5023453;28;20066;-73
2023/12/28 10:06:58;;;;;;;0.20;0.20;;;;;;;7.86;69.52;97474.66;5034299;28;20045;-73
2023/12/28 10:09:27;;;;;;;0.22;0.22;;;;;;;7.89;69.98;97484.09;5020615;28;20052;-73
2023/12/28 10:11:55;;;;;;;0.20;0.20;;;;;;;7.97;70.37;97478.69;5037601;28;20493;-73
2023/12/28 10:14:23;;;;;;;0.30;0.30;;;;;;;7.95;70.63;97472.72;5022806;28;20501;-73
2023/12/28 10:16:51;;;;;;;0.30;0.30;;;;;;;8.00;70.78;97470.34;5032136;28;20049;-73
2023/12/28 10:19:22;;;;;;;0.30;0.30;;;;;;;8.01;71.20;97475.47;5030075;28;20053;-73
2023/12/28 10:21:50;;;;;;;0.20;0.20;;;;;;;7.90;71.99;97465.28;5019449;28;20046;-73
2023/12/28 10:24:18;;;;;;;0.30;0.30;;;;;;;7.97;72.18;97478.69;5031180;28;20121;-73
2023/12/28 10:26:47;;;;;;;0.20;0.20;;;;;;;7.98;72.25;97481.19;5025804;28;20037;-73
2023/12/28 10:29:14;;;;;;;0.20;0.20;;;;;;;7.98;72.89;97480.34;5023331;28;20038;-73
2023/12/28 10:31:43;;;;;;;0.40;0.40;;;;;;;7.95;73.19;97475.38;5023985;28;20046;-73
2023/12/28 10:34:12;;;;;;;0.40;0.40;;;;;;;8.01;73.10;97475.47;5031776;28;20046;-73
2023/12/28 10:36:41;;;;;;;0.20;0.20;;;;;;;7.98;73.87;97480.34;5033606;28;20099;-72
2023/12/28 10:39:10;;;;;;;0.28;0.28;;;;;;;8.09;73.86;97479.91;5018568;28;20041;-73
2023/12/28 10:41:39;;;;;;;0.30;0.30;;;;;;;8.09;74.21;97478.06;5020504;28;20048;-73
2023/12/28 10:44:09;;;;;;;0.40;0.40;;;;;;;8.09;74.30;97463.97;5023407;28;20508;-73
2023/12/28 10:46:40;;;;;;;0.30;0.30;;;;;;;8.13;74.33;97469.72;5035654;28;20037;-73
2023/12/28 10:49:11;;;;;;;0.20;0.20;;;;;;;8.16;74.48;97475.50;5027748;28;20050;-73
2023/12/28 10:51:43;;;;;;;0.20;0.20;;;;;;;8.17;74.53;97474.50;5020023;28;20129;-73
2023/12/28 10:54:21;;;;;;;0.30;0.30;;;;;;;8.16;74.68;97459.56;5025701;28;20038;-72
2023/12/28 10:56:54;;;;;;;0.40;0.40;;;;;;;8.28;74.40;97450.13;5024495;28;20041;-72
2023/12/28 10:59:27;;;;;;;0.20;0.20;;;;;;;8.32;74.41;97446.09;5031052;28;20052;-73
2023/12/28 11:01:57;;;;;;;0.10;0.10;;;;;;;8.31;74.56;97455.09;5025227;28;20053;-73
2023/12/28 11:04:28;;;;;;;0.10;0.10;;;;;;;8.31;74.70;97457.75;5020051;28;20041;-73
2023/12/28 11:06:56;;;;;;;0.20;0.20;;;;;;;8.26;75.25;97457.44;5034447;28;20063;-73
2023/12/28 11:09:25;;;;;;;0.30;0.30;;;;;;;8.33;74.99;97460.22;5019237;28;20327;-73
2023/12/28 11:11:54;;;;;;;0.20;0.20;;;;;;;8.40;74.99;97439.88;5040737;22;20132;-74
2023/12/28 11:14:23;;;;;;;0.20;0.20;;;;;;;8.41;74.89;97444.16;5030418;28;20125;-74
2023/12/28 11:16:51;;;;;;;0.20;0.20;;;;;;;8.43;74.75;97440.31;5014012;28;20124;-73
2023/12/28 11:19:21;;;;;;;0.25;0.25;;;;;;;8.35;75.23;97443.06;5005624;28;20081;-74
2023/12/28 11:21:49;;;;;;;0.20;0.20;;;;;;;8.37;75.37;97448.22;5013865;28;20073;-74
2023/12/28 11:24:17;;;;;;;0.40;0.40;;;;;;;8.37;75.05;97449.03;5011828;28;20038;-76
2023/12/28 11:26:45;;;;;;;0.38;0.38;;;;;;;8.38;74.79;97439.22;5013507;28;20049;-76
2023/12/28 11:29:13;;;;;;;0.10;0.10;;;;;;;8.42;74.69;97433.34;5013509;28;20046;-76
2023/12/28 11:31:42;;;;;;;0.43;0.43;;;;;;;8.46;74.30;97431.97;5013328;28;20049;-73
2023/12/28 11:34:17;;;;;;;0.20;0.20;;;;;;;8.46;73.73;97441.78;5013448;28;20135;-76
2023/12/28 11:36:47;;;;;;;0.20;0.20;;;;;;;8.53;73.43;97441.84;5013597;28;20053;-73
2023/12/28 11:39:22;;;;;;;0.20;0.20;;;;;;;8.49;73.42;97438.78;5013307;28;20101;-74
2023/12/28 11:41:50;;;;;;;0.22;0.22;;;;;;;8.52;73.43;97438.38;5013371;28;20407;-75
2023/12/28 11:44:17;;;;;;;0.30;0.30;;;;;;;8.59;73.20;97438.47;5012935;28;20120;-74
2023/12/28 11:46:46;;;;;;;0.32;0.32;;;;;;;8.63;72.99;97435.25;5013548;28;20038;-74